sensor_id;sensor_type;location;lat;lon;timestamp;P1;P2;P0
69222;PMS7003;56514;51.816;-0.026;2023-03-17T00:00:02;2.00;2.00;1.75
69222;PMS7003;56514;51.816;-0.026;2023-03-17T00:02:48;2.50;2.50;2.00
69222;PMS7003;56514;51.816;-0.026;2023-03-17T00:05:58;3.00;3.00;2.50
69222;PMS7003;56514;51.816;-0.026;2023-03-17T00:09:06;3.50;3.50;3.50
69222;PMS7003;56514;51.816;-0.026;2023-03-17T00:12:22;1.00;1.00;1.00
69222;PMS7003;56514;51.816;-0.026;2023-03-17T00:15:32;4.00;4.00;3.50
69222;PMS7003;56514;51.816;-0.026;2023-03-17T00:18:42;3.00;3.00;2.50
69222;PMS7003;56514;51.816;-0.026;2023-03-17T00:21:52;4.00;4.00;3.00
69222;PMS7003;56514;51.816;-0.026;2023-03-17T00:25:04;1.25;1.25;1.25
69222;PMS7003;56514;51.816;-0.026;2023-03-17T00:28:26;4.00;4.00;3.50
69222;PMS7003;56514;51.816;-0.026;2023-03-17T00:31:36;4.00;4.00;2.50
69222;PMS7003;56514;51.816;-0.026;2023-03-17T00:34:47;4.50;4.50;4.00
69222;PMS7003;56514;51.816;-0.026;2023-03-17T00:37:56;7.00;6.25;5.00
69222;PMS7003;56514;51.816;-0.026;2023-03-17T00:41:07;5.25;5.25;5.00
69222;PMS7003;56514;51.816;-0.026;2023-03-17T00:43:56;8.00;6.25;4.00
69222;PMS7003;56514;51.816;-0.026;2023-03-17T00:46:42;5.00;5.00;4.00
69222;PMS7003;56514;51.816;-0.026;2023-03-17T00:49:27;4.50;4.50;3.00
69222;PMS7003;56514;51.816;-0.026;2023-03-17T00:52:12;5.00;5.00;4.00
69222;PMS7003;56514;51.816;-0.026;2023-03-17T00:54:57;6.00;5.00;2.00
69222;PMS7003;56514;51.816;-0.026;2023-03-17T00:57:42;5.25;5.25;3.50
69222;PMS7003;56514;51.816;-0.026;2023-03-17T01:00:28;3.00;3.00;2.00
69222;PMS7003;56514;51.816;-0.026;2023-03-17T01:03:13;7.25;5.75;5.00
69222;PMS7003;56514;51.816;-0.026;2023-03-17T01:05:59;4.50;4.50;4.00
69222;PMS7003;56514;51.816;-0.026;2023-03-17T01:08:46;5.00;5.00;4.50
69222;PMS7003;56514;51.816;-0.026;2023-03-17T01:11:31;3.00;3.00;3.00
69222;PMS7003;56514;51.816;-0.026;2023-03-17T01:14:16;4.50;4.50;2.00
69222;PMS7003;56514;51.816;-0.026;2023-03-17T01:17:01;5.50;5.50;4.00
69222;PMS7003;56514;51.816;-0.026;2023-03-17T01:19:46;5.00;5.00;4.00
69222;PMS7003;56514;51.816;-0.026;2023-03-17T01:22:32;5.00;5.00;2.50
69222;PMS7003;56514;51.816;-0.026;2023-03-17T01:25:17;4.25;4.25;4.00
69222;PMS7003;56514;51.816;-0.026;2023-03-17T01:28:03;3.50;3.50;2.00
69222;PMS7003;56514;51.816;-0.026;2023-03-17T01:30:49;1.75;1.75;1.00
69222;PMS7003;56514;51.816;-0.026;2023-03-17T01:33:34;5.25;4.00;4.00
69222;PMS7003;56514;51.816;-0.026;2023-03-17T01:36:20;5.25;5.25;4.00
69222;PMS7003;56514;51.816;-0.026;2023-03-17T01:39:05;2.00;2.00;1.75
69222;PMS7003;56514;51.816;-0.026;2023-03-17T01:41:53;4.75;4.75;2.50
69222;PMS7003;56514;51.816;-0.026;2023-03-17T01:44:59;1.75;1.75;1.00
69222;PMS7003;56514;51.816;-0.026;2023-03-17T01:47:49;2.00;2.00;1.25
69222;PMS7003;56514;51.816;-0.026;2023-03-17T01:50:35;1.50;1.50;1.25
69222;PMS7003;56514;51.816;-0.026;2023-03-17T01:53:20;1.50;1.50;1.25
69222;PMS7003;56514;51.816;-0.026;2023-03-17T01:56:06;2.00;2.00;1.00
69222;PMS7003;56514;51.816;-0.026;2023-03-17T01:58:52;1.00;1.00;1.00
69222;PMS7003;56514;51.816;-0.026;2023-03-17T02:01:40;0.50;0.50;0.50
69222;PMS7003;56514;51.816;-0.026;2023-03-17T02:04:29;2.00;2.00;1.00
69222;PMS7003;56514;51.816;-0.026;2023-03-17T02:07:15;1.25;1.25;1.00
69222;PMS7003;56514;51.816;-0.026;2023-03-17T02:09:59;1.00;1.00;1.00
69222;PMS7003;56514;51.816;-0.026;2023-03-17T02:12:49;1.50;1.50;1.00
69222;PMS7003;56514;51.816;-0.026;2023-03-17T02:15:40;3.50;3.50;2.00
69222;PMS7003;56514;51.816;-0.026;2023-03-17T02:18:27;3.50;3.50;1.50
69222;PMS7003;56514;51.816;-0.026;2023-03-17T02:24:35;1.75;1.75;1.75
69222;PMS7003;56514;51.816;-0.026;2023-03-17T02:27:31;0.75;0.75;0.75
69222;PMS7003;56514;51.816;-0.026;2023-03-17T02:30:22;0.75;0.75;0.75
69222;PMS7003;56514;51.816;-0.026;2023-03-17T02:33:08;0.00;0.00;0.00
69222;PMS7003;56514;51.816;-0.026;2023-03-17T02:35:53;0.00;0.00;0.00
69222;PMS7003;56514;51.816;-0.026;2023-03-17T02:38:38;0.00;0.00;0.00
69222;PMS7003;56514;51.816;-0.026;2023-03-17T02:41:23;0.00;0.00;0.00
69222;PMS7003;56514;51.816;-0.026;2023-03-17T02:44:08;0.00;0.00;0.00
69222;PMS7003;56514;51.816;-0.026;2023-03-17T02:46:54;0.00;0.00;0.00
69222;PMS7003;56514;51.816;-0.026;2023-03-17T02:49:39;0.00;0.00;0.00
69222;PMS7003;56514;51.816;-0.026;2023-03-17T02:52:25;0.00;0.00;0.00
69222;PMS7003;56514;51.816;-0.026;2023-03-17T02:55:11;0.00;0.00;0.00
69222;PMS7003;56514;51.816;-0.026;2023-03-17T02:57:55;0.00;0.00;0.00
69222;PMS7003;56514;51.816;-0.026;2023-03-17T03:00:41;0.00;0.00;0.00
69222;PMS7003;56514;51.816;-0.026;2023-03-17T03:03:26;0.00;0.00;0.00
69222;PMS7003;56514;51.816;-0.026;2023-03-17T03:06:11;0.00;0.00;0.00
69222;PMS7003;56514;51.816;-0.026;2023-03-17T03:08:56;0.00;0.00;0.00
69222;PMS7003;56514;51.816;-0.026;2023-03-17T03:11:42;0.00;0.00;0.00
69222;PMS7003;56514;51.816;-0.026;2023-03-17T03:14:27;0.00;0.00;0.00
69222;PMS7003;56514;51.816;-0.026;2023-03-17T03:17:12;0.00;0.00;0.00
69222;PMS7003;56514;51.816;-0.026;2023-03-17T03:19:57;0.00;0.00;0.00
69222;PMS7003;56514;51.816;-0.026;2023-03-17T03:22:42;0.00;0.00;0.00
69222;PMS7003;56514;51.816;-0.026;2023-03-17T03:25:27;0.00;0.00;0.00
69222;PMS7003;56514;51.816;-0.026;2023-03-17T03:28:12;0.00;0.00;0.00
69222;PMS7003;56514;51.816;-0.026;2023-03-17T03:30:57;0.00;0.00;0.00
69222;PMS7003;56514;51.816;-0.026;2023-03-17T03:33:43;0.00;0.00;0.00
69222;PMS7003;56514;51.816;-0.026;2023-03-17T03:36:28;0.00;0.00;0.00
69222;PMS7003;56514;51.816;-0.026;2023-03-17T03:39:13;0.00;0.00;0.00
69222;PMS7003;56514;51.816;-0.026;2023-03-17T03:41:58;0.00;0.00;0.00
69222;PMS7003;56514;51.816;-0.026;2023-03-17T03:44:44;0.00;0.00;0.00
69222;PMS7003;56514;51.816;-0.026;2023-03-17T03:47:29;0.00;0.00;0.00
69222;PMS7003;56514;51.816;-0.026;2023-03-17T03:50:14;0.00;0.00;0.00
69222;PMS7003;56514;51.816;-0.026;2023-03-17T03:52:59;0.00;0.00;0.00
69222;PMS7003;56514;51.816;-0.026;2023-03-17T03:55:44;0.00;0.00;0.00
69222;PMS7003;56514;51.816;-0.026;2023-03-17T03:58:30;0.00;0.00;0.00
69222;PMS7003;56514;51.816;-0.026;2023-03-17T04:01:14;0.00;0.00;0.00
69222;PMS7003;56514;51.816;-0.026;2023-03-17T04:03:59;0.00;0.00;0.00
69222;PMS7003;56514;51.816;-0.026;2023-03-17T04:06:45;0.00;0.00;0.00
69222;PMS7003;56514;51.816;-0.026;2023-03-17T04:09:29;0.00;0.00;0.00
69222;PMS7003;56514;51.816;-0.026;2023-03-17T04:12:15;0.00;0.00;0.00
69222;PMS7003;56514;51.816;-0.026;2023-03-17T04:15:00;0.00;0.00;0.00
69222;PMS7003;56514;51.816;-0.026;2023-03-17T04:17:45;0.00;0.00;0.00
69222;PMS7003;56514;51.816;-0.026;2023-03-17T04:20:30;0.00;0.00;0.00
69222;PMS7003;56514;51.816;-0.026;2023-03-17T04:23:15;0.00;0.00;0.00
69222;PMS7003;56514;51.816;-0.026;2023-03-17T04:26:01;0.00;0.00;0.00
69222;PMS7003;56514;51.816;-0.026;2023-03-17T04:28:46;0.00;0.00;0.00
69222;PMS7003;56514;51.816;-0.026;2023-03-17T04:31:31;0.00;0.00;0.00
69222;PMS7003;56514;51.816;-0.026;2023-03-17T04:34:16;0.00;0.00;0.00
69222;PMS7003;56514;51.816;-0.026;2023-03-17T04:37:02;0.00;0.00;0.00
69222;PMS7003;56514;51.816;-0.026;2023-03-17T04:39:46;0.00;0.00;0.00
69222;PMS7003;56514;51.816;-0.026;2023-03-17T04:42:31;0.00;0.00;0.00
69222;PMS7003;56514;51.816;-0.026;2023-03-17T04:45:16;0.00;0.00;0.00
69222;PMS7003;56514;51.816;-0.026;2023-03-17T04:48:01;0.00;0.00;0.00
69222;PMS7003;56514;51.816;-0.026;2023-03-17T04:50:47;0.00;0.00;0.00
69222;PMS7003;56514;51.816;-0.026;2023-03-17T04:53:32;0.00;0.00;0.00
69222;PMS7003;56514;51.816;-0.026;2023-03-17T04:56:17;0.00;0.00;0.00
69222;PMS7003;56514;51.816;-0.026;2023-03-17T04:59:03;0.00;0.00;0.00
69222;PMS7003;56514;51.816;-0.026;2023-03-17T05:01:48;0.00;0.00;0.00
69222;PMS7003;56514;51.816;-0.026;2023-03-17T05:04:33;0.00;0.00;0.00
69222;PMS7003;56514;51.816;-0.026;2023-03-17T05:07:18;0.00;0.00;0.00
69222;PMS7003;56514;51.816;-0.026;2023-03-17T05:10:03;0.00;0.00;0.00
69222;PMS7003;56514;51.816;-0.026;2023-03-17T05:12:49;0.00;0.00;0.00
69222;PMS7003;56514;51.816;-0.026;2023-03-17T05:15:34;0.00;0.00;0.00
69222;PMS7003;56514;51.816;-0.026;2023-03-17T05:18:21;0.00;0.00;0.00
69222;PMS7003;56514;51.816;-0.026;2023-03-17T05:21:08;0.00;0.00;0.00
69222;PMS7003;56514;51.816;-0.026;2023-03-17T05:23:53;0.00;0.00;0.00
69222;PMS7003;56514;51.816;-0.026;2023-03-17T05:26:38;0.00;0.00;0.00
69222;PMS7003;56514;51.816;-0.026;2023-03-17T05:29:23;0.00;0.00;0.00
69222;PMS7003;56514;51.816;-0.026;2023-03-17T05:32:08;0.00;0.00;0.00
69222;PMS7003;56514;51.816;-0.026;2023-03-17T05:34:54;0.00;0.00;0.00
69222;PMS7003;56514;51.816;-0.026;2023-03-17T05:37:39;0.00;0.00;0.00
69222;PMS7003;56514;51.816;-0.026;2023-03-17T05:40:24;0.00;0.00;0.00
69222;PMS7003;56514;51.816;-0.026;2023-03-17T05:43:10;0.00;0.00;0.00
69222;PMS7003;56514;51.816;-0.026;2023-03-17T05:45:55;1.00;1.00;1.00
69222;PMS7003;56514;51.816;-0.026;2023-03-17T05:48:41;0.00;0.00;0.00
69222;PMS7003;56514;51.816;-0.026;2023-03-17T05:51:26;0.00;0.00;0.00
69222;PMS7003;56514;51.816;-0.026;2023-03-17T05:54:11;0.00;0.00;0.00
69222;PMS7003;56514;51.816;-0.026;2023-03-17T05:56:56;0.00;0.00;0.00
69222;PMS7003;56514;51.816;-0.026;2023-03-17T05:59:41;0.00;0.00;0.00
69222;PMS7003;56514;51.816;-0.026;2023-03-17T06:02:26;0.00;0.00;0.00
69222;PMS7003;56514;51.816;-0.026;2023-03-17T06:05:11;0.00;0.00;0.00
69222;PMS7003;56514;51.816;-0.026;2023-03-17T06:07:56;0.00;0.00;0.00
69222;PMS7003;56514;51.816;-0.026;2023-03-17T06:10:41;0.00;0.00;0.00
69222;PMS7003;56514;51.816;-0.026;2023-03-17T06:13:26;0.00;0.00;0.00
69222;PMS7003;56514;51.816;-0.026;2023-03-17T06:16:11;0.00;0.00;0.00
69222;PMS7003;56514;51.816;-0.026;2023-03-17T06:18:56;0.00;0.00;0.00
69222;PMS7003;56514;51.816;-0.026;2023-03-17T06:21:41;0.00;0.00;0.00
69222;PMS7003;56514;51.816;-0.026;2023-03-17T06:24:26;0.00;0.00;0.00
69222;PMS7003;56514;51.816;-0.026;2023-03-17T06:27:11;0.00;0.00;0.00
69222;PMS7003;56514;51.816;-0.026;2023-03-17T06:29:58;0.00;0.00;0.00
69222;PMS7003;56514;51.816;-0.026;2023-03-17T06:32:43;0.00;0.00;0.00
69222;PMS7003;56514;51.816;-0.026;2023-03-17T06:35:29;0.00;0.00;0.00
69222;PMS7003;56514;51.816;-0.026;2023-03-17T06:38:15;1.00;1.00;0.00
69222;PMS7003;56514;51.816;-0.026;2023-03-17T06:41:00;0.00;0.00;0.00
69222;PMS7003;56514;51.816;-0.026;2023-03-17T06:43:45;0.00;0.00;0.00
69222;PMS7003;56514;51.816;-0.026;2023-03-17T06:46:31;0.00;0.00;0.00
69222;PMS7003;56514;51.816;-0.026;2023-03-17T06:49:16;0.00;0.00;0.00
69222;PMS7003;56514;51.816;-0.026;2023-03-17T06:52:00;0.00;0.00;0.00
69222;PMS7003;56514;51.816;-0.026;2023-03-17T06:54:45;0.00;0.00;0.00
69222;PMS7003;56514;51.816;-0.026;2023-03-17T06:57:30;0.00;0.00;0.00
69222;PMS7003;56514;51.816;-0.026;2023-03-17T07:00:16;0.00;0.00;0.00
69222;PMS7003;56514;51.816;-0.026;2023-03-17T07:03:01;0.00;0.00;0.00
69222;PMS7003;56514;51.816;-0.026;2023-03-17T07:05:49;0.00;0.00;0.00
69222;PMS7003;56514;51.816;-0.026;2023-03-17T07:08:35;0.00;0.00;0.00
69222;PMS7003;56514;51.816;-0.026;2023-03-17T07:11:20;0.00;0.00;0.00
69222;PMS7003;56514;51.816;-0.026;2023-03-17T07:14:07;0.00;0.00;0.00
69222;PMS7003;56514;51.816;-0.026;2023-03-17T07:16:53;0.00;0.00;0.00
69222;PMS7003;56514;51.816;-0.026;2023-03-17T07:19:39;0.00;0.00;0.00
69222;PMS7003;56514;51.816;-0.026;2023-03-17T07:22:25;0.00;0.00;0.00
69222;PMS7003;56514;51.816;-0.026;2023-03-17T07:25:11;0.00;0.00;0.00
69222;PMS7003;56514;51.816;-0.026;2023-03-17T07:27:56;0.00;0.00;0.00
69222;PMS7003;56514;51.816;-0.026;2023-03-17T07:30:41;0.00;0.00;0.00
69222;PMS7003;56514;51.816;-0.026;2023-03-17T07:33:30;0.00;0.00;0.00
69222;PMS7003;56514;51.816;-0.026;2023-03-17T07:36:16;1.00;1.00;1.00
69222;PMS7003;56514;51.816;-0.026;2023-03-17T07:39:02;0.00;0.00;0.00
69222;PMS7003;56514;51.816;-0.026;2023-03-17T07:41:47;0.00;0.00;0.00
69222;PMS7003;56514;51.816;-0.026;2023-03-17T07:44:36;0.00;0.00;0.00
69222;PMS7003;56514;51.816;-0.026;2023-03-17T07:47:23;1.00;1.00;1.00
69222;PMS7003;56514;51.816;-0.026;2023-03-17T07:50:08;1.00;1.00;0.00
69222;PMS7003;56514;51.816;-0.026;2023-03-17T07:52:54;0.25;0.25;0.25
69222;PMS7003;56514;51.816;-0.026;2023-03-17T07:55:40;0.00;0.00;0.00
69222;PMS7003;56514;51.816;-0.026;2023-03-17T07:58:26;2.50;2.50;2.00
69222;PMS7003;56514;51.816;-0.026;2023-03-17T08:01:11;4.50;4.50;3.50
69222;PMS7003;56514;51.816;-0.026;2023-03-17T08:03:56;2.00;2.00;2.00
69222;PMS7003;56514;51.816;-0.026;2023-03-17T08:06:41;2.50;2.50;2.00
69222;PMS7003;56514;51.816;-0.026;2023-03-17T08:09:26;2.00;2.00;1.50
69222;PMS7003;56514;51.816;-0.026;2023-03-17T08:12:11;3.25;3.00;2.00
69222;PMS7003;56514;51.816;-0.026;2023-03-17T08:14:56;2.00;2.00;1.00
69222;PMS7003;56514;51.816;-0.026;2023-03-17T08:17:41;1.00;1.00;1.00
69222;PMS7003;56514;51.816;-0.026;2023-03-17T08:20:26;4.00;3.50;1.75
69222;PMS7003;56514;51.816;-0.026;2023-03-17T08:23:11;1.00;1.00;1.00
69222;PMS7003;56514;51.816;-0.026;2023-03-17T08:26:00;1.00;1.00;1.00
69222;PMS7003;56514;51.816;-0.026;2023-03-17T08:28:46;2.00;2.00;1.00
69222;PMS7003;56514;51.816;-0.026;2023-03-17T08:31:32;5.00;5.00;2.00
69222;PMS7003;56514;51.816;-0.026;2023-03-17T08:34:17;1.00;1.00;1.00
69222;PMS7003;56514;51.816;-0.026;2023-03-17T08:37:02;1.00;1.00;1.00
69222;PMS7003;56514;51.816;-0.026;2023-03-17T08:39:48;1.50;1.50;1.00
69222;PMS7003;56514;51.816;-0.026;2023-03-17T08:42:34;2.50;2.50;2.00
69222;PMS7003;56514;51.816;-0.026;2023-03-17T08:45:21;2.00;2.00;1.00
69222;PMS7003;56514;51.816;-0.026;2023-03-17T08:48:06;8.00;6.00;4.50
69222;PMS7003;56514;51.816;-0.026;2023-03-17T08:50:56;4.50;4.50;2.00
69222;PMS7003;56514;51.816;-0.026;2023-03-17T08:53:41;5.25;5.25;3.50
69222;PMS7003;56514;51.816;-0.026;2023-03-17T08:56:27;5.75;5.75;4.50
69222;PMS7003;56514;51.816;-0.026;2023-03-17T08:59:12;1.00;1.00;0.00
69222;PMS7003;56514;51.816;-0.026;2023-03-17T09:01:56;3.50;3.25;1.25
69222;PMS7003;56514;51.816;-0.026;2023-03-17T09:04:41;4.75;4.75;3.00
69222;PMS7003;56514;51.816;-0.026;2023-03-17T09:07:26;4.00;4.00;2.00
69222;PMS7003;56514;51.816;-0.026;2023-03-17T09:10:11;9.75;9.75;7.50
69222;PMS7003;56514;51.816;-0.026;2023-03-17T09:12:58;5.25;5.25;4.25
69222;PMS7003;56514;51.816;-0.026;2023-03-17T09:15:47;5.00;5.00;4.00
69222;PMS7003;56514;51.816;-0.026;2023-03-17T09:18:32;8.00;8.00;5.25
69222;PMS7003;56514;51.816;-0.026;2023-03-17T09:21:17;9.50;8.50;5.75
69222;PMS7003;56514;51.816;-0.026;2023-03-17T09:24:02;6.00;6.00;4.50
69222;PMS7003;56514;51.816;-0.026;2023-03-17T09:26:47;8.00;7.50;5.00
69222;PMS7003;56514;51.816;-0.026;2023-03-17T09:29:32;4.75;4.75;4.00
69222;PMS7003;56514;51.816;-0.026;2023-03-17T09:32:18;5.25;5.25;4.50
69222;PMS7003;56514;51.816;-0.026;2023-03-17T09:35:03;5.00;5.00;3.00
69222;PMS7003;56514;51.816;-0.026;2023-03-17T09:37:48;6.00;6.00;4.00
69222;PMS7003;56514;51.816;-0.026;2023-03-17T09:40:44;5.00;5.00;4.00
69222;PMS7003;56514;51.816;-0.026;2023-03-17T09:49:50;7.50;7.50;4.25
69222;PMS7003;56514;51.816;-0.026;2023-03-17T09:52:41;5.50;5.50;4.00
69222;PMS7003;56514;51.816;-0.026;2023-03-17T09:55:27;4.25;4.25;3.00
69222;PMS7003;56514;51.816;-0.026;2023-03-17T09:58:14;5.75;5.75;3.50
69222;PMS7003;56514;51.816;-0.026;2023-03-17T10:01:02;6.00;6.00;4.25
69222;PMS7003;56514;51.816;-0.026;2023-03-17T10:03:50;4.75;4.75;2.50
69222;PMS7003;56514;51.816;-0.026;2023-03-17T10:06:40;4.75;4.75;3.00
69222;PMS7003;56514;51.816;-0.026;2023-03-17T10:15:24;4.75;4.75;3.50
69222;PMS7003;56514;51.816;-0.026;2023-03-17T10:18:30;2.00;2.00;2.00
69222;PMS7003;56514;51.816;-0.026;2023-03-17T10:21:21;4.00;4.00;2.00
69222;PMS7003;56514;51.816;-0.026;2023-03-17T10:24:11;2.50;2.50;2.00
69222;PMS7003;56514;51.816;-0.026;2023-03-17T10:26:57;2.00;2.00;1.50
69222;PMS7003;56514;51.816;-0.026;2023-03-17T10:29:48;4.00;4.00;2.00
69222;PMS7003;56514;51.816;-0.026;2023-03-17T10:32:34;4.50;4.50;2.50
69222;PMS7003;56514;51.816;-0.026;2023-03-17T10:35:23;4.75;4.75;3.50
69222;PMS7003;56514;51.816;-0.026;2023-03-17T10:38:15;4.75;4.75;3.50
69222;PMS7003;56514;51.816;-0.026;2023-03-17T10:41:06;4.50;4.50;3.00
69222;PMS7003;56514;51.816;-0.026;2023-03-17T10:43:55;2.00;2.00;1.50
69222;PMS7003;56514;51.816;-0.026;2023-03-17T10:46:41;1.00;1.00;1.00
69222;PMS7003;56514;51.816;-0.026;2023-03-17T10:49:38;1.00;1.00;1.00
69222;PMS7003;56514;51.816;-0.026;2023-03-17T10:52:27;2.00;2.00;1.25
69222;PMS7003;56514;51.816;-0.026;2023-03-17T10:55:16;6.00;4.75;2.50
69222;PMS7003;56514;51.816;-0.026;2023-03-17T10:58:06;2.00;2.00;1.25
69222;PMS7003;56514;51.816;-0.026;2023-03-17T11:01:07;4.50;4.50;2.25
69222;PMS7003;56514;51.816;-0.026;2023-03-17T11:04:17;2.00;2.00;1.75
69222;PMS7003;56514;51.816;-0.026;2023-03-17T11:07:19;1.50;1.50;1.00
69222;PMS7003;56514;51.816;-0.026;2023-03-17T11:10:17;5.75;5.75;2.00
69222;PMS7003;56514;51.816;-0.026;2023-03-17T11:13:15;1.00;1.00;1.00
69222;PMS7003;56514;51.816;-0.026;2023-03-17T11:16:05;2.00;2.00;1.75
69222;PMS7003;56514;51.816;-0.026;2023-03-17T11:18:55;4.75;4.75;2.00
69222;PMS7003;56514;51.816;-0.026;2023-03-17T11:24:53;4.00;4.00;3.00
69222;PMS7003;56514;51.816;-0.026;2023-03-17T11:28:05;5.75;4.75;2.00
69222;PMS7003;56514;51.816;-0.026;2023-03-17T11:31:09;4.50;4.50;4.00
69222;PMS7003;56514;51.816;-0.026;2023-03-17T11:46:10;2.50;2.50;1.25
69222;PMS7003;56514;51.816;-0.026;2023-03-17T11:55:38;5.25;5.25;4.00
69222;PMS7003;56514;51.816;-0.026;2023-03-17T11:58:36;4.00;4.00;2.00
69222;PMS7003;56514;51.816;-0.026;2023-03-17T12:01:28;3.00;3.00;2.00
69222;PMS7003;56514;51.816;-0.026;2023-03-17T12:04:25;4.00;4.00;2.00
69222;PMS7003;56514;51.816;-0.026;2023-03-17T12:10:53;3.50;3.50;2.00
69222;PMS7003;56514;51.816;-0.026;2023-03-17T12:13:45;5.00;5.00;4.00
69222;PMS7003;56514;51.816;-0.026;2023-03-17T12:16:45;4.75;4.75;4.00
69222;PMS7003;56514;51.816;-0.026;2023-03-17T12:22:43;2.00;2.00;1.75
69222;PMS7003;56514;51.816;-0.026;2023-03-17T12:25:40;2.00;2.00;1.50
69222;PMS7003;56514;51.816;-0.026;2023-03-17T12:28:37;2.50;2.50;1.75
69222;PMS7003;56514;51.816;-0.026;2023-03-17T12:31:36;2.00;2.00;1.50
69222;PMS7003;56514;51.816;-0.026;2023-03-17T12:34:30;2.00;2.00;2.00
69222;PMS7003;56514;51.816;-0.026;2023-03-17T12:37:25;5.00;5.00;4.00
69222;PMS7003;56514;51.816;-0.026;2023-03-17T12:40:16;4.50;4.50;4.00
69222;PMS7003;56514;51.816;-0.026;2023-03-17T12:52:33;1.00;1.00;1.00
69222;PMS7003;56514;51.816;-0.026;2023-03-17T12:55:32;4.00;4.00;2.00
69222;PMS7003;56514;51.816;-0.026;2023-03-17T13:04:22;4.75;4.75;4.00
69222;PMS7003;56514;51.816;-0.026;2023-03-17T13:13:20;5.50;5.50;4.00
69222;PMS7003;56514;51.816;-0.026;2023-03-17T13:16:30;4.00;4.00;2.00
69222;PMS7003;56514;51.816;-0.026;2023-03-17T13:19:22;5.25;5.25;5.00
69222;PMS7003;56514;51.816;-0.026;2023-03-17T13:24:53;5.50;5.50;4.50
69222;PMS7003;56514;51.816;-0.026;2023-03-17T13:28:45;6.00;6.00;5.00
69222;PMS7003;56514;51.816;-0.026;2023-03-17T13:31:10;5.25;5.25;5.00
69222;PMS7003;56514;51.816;-0.026;2023-03-17T13:34:13;4.50;4.50;3.00
69222;PMS7003;56514;51.816;-0.026;2023-03-17T13:37:12;5.50;5.50;4.50
69222;PMS7003;56514;51.816;-0.026;2023-03-17T13:46:15;1.75;1.75;1.50
69222;PMS7003;56514;51.816;-0.026;2023-03-17T13:52:12;0.00;0.00;0.00
69222;PMS7003;56514;51.816;-0.026;2023-03-17T13:55:04;1.00;1.00;1.00
69222;PMS7003;56514;51.816;-0.026;2023-03-17T14:00:54;1.00;1.00;1.00
69222;PMS7003;56514;51.816;-0.026;2023-03-17T14:03:47;2.00;2.00;1.75
69222;PMS7003;56514;51.816;-0.026;2023-03-17T14:06:35;1.00;1.00;1.00
69222;PMS7003;56514;51.816;-0.026;2023-03-17T14:15:33;0.00;0.00;0.00
69222;PMS7003;56514;51.816;-0.026;2023-03-17T14:18:37;1.00;1.00;0.75
69222;PMS7003;56514;51.816;-0.026;2023-03-17T14:21:29;1.00;1.00;0.25
69222;PMS7003;56514;51.816;-0.026;2023-03-17T14:24:23;0.00;0.00;0.00
69222;PMS7003;56514;51.816;-0.026;2023-03-17T14:27:12;0.00;0.00;0.00
69222;PMS7003;56514;51.816;-0.026;2023-03-17T14:30:03;1.00;1.00;1.00
69222;PMS7003;56514;51.816;-0.026;2023-03-17T14:35:59;0.25;0.25;0.00
69222;PMS7003;56514;51.816;-0.026;2023-03-17T14:38:50;0.00;0.00;0.00
69222;PMS7003;56514;51.816;-0.026;2023-03-17T14:41:36;0.00;0.00;0.00
69222;PMS7003;56514;51.816;-0.026;2023-03-17T14:44:21;1.00;1.00;1.00
69222;PMS7003;56514;51.816;-0.026;2023-03-17T14:47:12;0.00;0.00;0.00
69222;PMS7003;56514;51.816;-0.026;2023-03-17T14:50:03;0.50;0.50;0.50
69222;PMS7003;56514;51.816;-0.026;2023-03-17T14:52:58;1.00;1.00;1.00
69222;PMS7003;56514;51.816;-0.026;2023-03-17T14:55:44;1.00;1.00;1.00
69222;PMS7003;56514;51.816;-0.026;2023-03-17T14:58:34;2.00;2.00;2.00
69222;PMS7003;56514;51.816;-0.026;2023-03-17T15:04:27;1.00;1.00;1.00
69222;PMS7003;56514;51.816;-0.026;2023-03-17T15:07:28;2.00;2.00;2.00
69222;PMS7003;56514;51.816;-0.026;2023-03-17T15:10:23;1.75;1.75;1.75
69222;PMS7003;56514;51.816;-0.026;2023-03-17T15:13:14;0.00;0.00;0.00
69222;PMS7003;56514;51.816;-0.026;2023-03-17T15:16:14;0.00;0.00;0.00
69222;PMS7003;56514;51.816;-0.026;2023-03-17T15:19:07;0.00;0.00;0.00
69222;PMS7003;56514;51.816;-0.026;2023-03-17T15:22:20;0.00;0.00;0.00
69222;PMS7003;56514;51.816;-0.026;2023-03-17T15:28:17;0.40;0.40;0.00
69222;PMS7003;56514;51.816;-0.026;2023-03-17T15:31:10;0.00;0.00;0.00
69222;PMS7003;56514;51.816;-0.026;2023-03-17T15:33:57;1.00;1.00;1.00
69222;PMS7003;56514;51.816;-0.026;2023-03-17T15:36:41;1.00;1.00;1.00
69222;PMS7003;56514;51.816;-0.026;2023-03-17T15:39:30;1.00;1.00;1.00
69222;PMS7003;56514;51.816;-0.026;2023-03-17T15:42:16;0.60;0.60;0.60
69222;PMS7003;56514;51.816;-0.026;2023-03-17T15:45:04;0.80;0.80;0.60
69222;PMS7003;56514;51.816;-0.026;2023-03-17T15:47:50;1.00;1.00;1.00
69222;PMS7003;56514;51.816;-0.026;2023-03-17T15:50:35;0.50;0.50;0.50
69222;PMS7003;56514;51.816;-0.026;2023-03-17T15:53:20;0.00;0.00;0.00
69222;PMS7003;56514;51.816;-0.026;2023-03-17T15:56:08;0.00;0.00;0.00
69222;PMS7003;56514;51.816;-0.026;2023-03-17T15:58:59;0.20;0.20;0.20
69222;PMS7003;56514;51.816;-0.026;2023-03-17T16:01:43;1.00;1.00;1.00
69222;PMS7003;56514;51.816;-0.026;2023-03-17T16:04:29;1.00;1.00;0.20
69222;PMS7003;56514;51.816;-0.026;2023-03-17T16:07:15;1.00;1.00;1.00
69222;PMS7003;56514;51.816;-0.026;2023-03-17T16:10:00;0.00;0.00;0.00
69222;PMS7003;56514;51.816;-0.026;2023-03-17T16:12:46;0.00;0.00;0.00
69222;PMS7003;56514;51.816;-0.026;2023-03-17T16:15:32;0.00;0.00;0.00
69222;PMS7003;56514;51.816;-0.026;2023-03-17T16:18:27;0.00;0.00;0.00
69222;PMS7003;56514;51.816;-0.026;2023-03-17T16:21:16;0.00;0.00;0.00
69222;PMS7003;56514;51.816;-0.026;2023-03-17T16:24:02;1.00;1.00;0.00
69222;PMS7003;56514;51.816;-0.026;2023-03-17T16:26:47;1.75;1.75;1.00
69222;PMS7003;56514;51.816;-0.026;2023-03-17T16:29:34;0.00;0.00;0.00
69222;PMS7003;56514;51.816;-0.026;2023-03-17T16:32:18;1.00;1.00;0.40
69222;PMS7003;56514;51.816;-0.026;2023-03-17T16:35:08;1.00;1.00;1.00
69222;PMS7003;56514;51.816;-0.026;2023-03-17T16:37:58;1.40;1.40;1.40
69222;PMS7003;56514;51.816;-0.026;2023-03-17T16:40:44;2.60;2.60;2.00
69222;PMS7003;56514;51.816;-0.026;2023-03-17T16:43:32;2.00;2.00;2.00
69222;PMS7003;56514;51.816;-0.026;2023-03-17T16:46:21;4.00;4.00;3.25
69222;PMS7003;56514;51.816;-0.026;2023-03-17T16:49:06;1.00;1.00;1.00
69222;PMS7003;56514;51.816;-0.026;2023-03-17T16:51:54;0.50;0.50;0.50
69222;PMS7003;56514;51.816;-0.026;2023-03-17T16:54:39;0.50;0.50;0.50
69222;PMS7003;56514;51.816;-0.026;2023-03-17T16:57:24;0.75;0.75;0.00
69222;PMS7003;56514;51.816;-0.026;2023-03-17T17:00:14;0.00;0.00;0.00
69222;PMS7003;56514;51.816;-0.026;2023-03-17T17:03:02;1.00;1.00;1.00
69222;PMS7003;56514;51.816;-0.026;2023-03-17T17:05:47;1.00;1.00;1.00
69222;PMS7003;56514;51.816;-0.026;2023-03-17T17:08:32;0.00;0.00;0.00
69222;PMS7003;56514;51.816;-0.026;2023-03-17T17:11:17;0.00;0.00;0.00
69222;PMS7003;56514;51.816;-0.026;2023-03-17T17:14:04;0.00;0.00;0.00
69222;PMS7003;56514;51.816;-0.026;2023-03-17T17:16:49;0.00;0.00;0.00
69222;PMS7003;56514;51.816;-0.026;2023-03-17T17:19:33;0.00;0.00;0.00
69222;PMS7003;56514;51.816;-0.026;2023-03-17T17:22:19;0.00;0.00;0.00
69222;PMS7003;56514;51.816;-0.026;2023-03-17T17:25:04;0.00;0.00;0.00
69222;PMS7003;56514;51.816;-0.026;2023-03-17T17:27:53;0.00;0.00;0.00
69222;PMS7003;56514;51.816;-0.026;2023-03-17T17:30:39;0.00;0.00;0.00
69222;PMS7003;56514;51.816;-0.026;2023-03-17T17:33:29;0.25;0.25;0.25
69222;PMS7003;56514;51.816;-0.026;2023-03-17T17:36:15;0.25;0.25;0.00
69222;PMS7003;56514;51.816;-0.026;2023-03-17T17:39:01;0.00;0.00;0.00
69222;PMS7003;56514;51.816;-0.026;2023-03-17T17:41:46;0.00;0.00;0.00
69222;PMS7003;56514;51.816;-0.026;2023-03-17T17:44:31;0.00;0.00;0.00
69222;PMS7003;56514;51.816;-0.026;2023-03-17T17:47:16;0.00;0.00;0.00